createdAt,value
2022-10-05T00:00:55.659Z,51.63
2022-10-05T00:05:59.656Z,52.04
2022-10-05T00:11:02.461Z,52.06
2022-10-05T00:16:09.275Z,52.24
2022-10-05T00:21:18.134Z,52.37
2022-10-05T00:26:22.014Z,52.33
2022-10-05T00:31:30.281Z,52.75
2022-10-05T00:36:34.360Z,52.58
2022-10-05T00:41:46.308Z,52.62
2022-10-05T00:46:54.922Z,52.73
2022-10-05T00:52:02.577Z,52.75
2022-10-05T00:57:16.345Z,52.95
2022-10-05T01:02:22.378Z,53.15
2022-10-05T01:07:30.915Z,52.90
2022-10-05T01:12:37.952Z,53.15
2022-10-05T01:17:42.958Z,53.26
2022-10-05T01:23:30.485Z,53.15
2022-10-05T01:28:36.548Z,53.53
2022-10-05T01:33:41.872Z,53.44
2022-10-05T01:38:46.863Z,53.57
2022-10-05T01:43:53.033Z,53.71
2022-10-05T01:49:13.813Z,53.70
2022-10-05T01:54:23.572Z,53.66
2022-10-05T01:59:31.713Z,53.94
2022-10-05T02:05:00.868Z,53.90
2022-10-05T02:10:01.925Z,54.05
2022-10-05T02:15:09.628Z,54.10
2022-10-05T02:20:13.104Z,54.15
2022-10-05T02:25:18.037Z,54.44
2022-10-05T02:30:22.430Z,54.14
2022-10-05T02:35:26.831Z,54.24
2022-10-05T02:40:36.707Z,54.20
2022-10-05T02:45:43.156Z,54.22
2022-10-05T02:50:49.848Z,54.24
2022-10-05T02:55:58.909Z,54.42
2022-10-05T03:01:07.201Z,54.55
2022-10-05T03:06:14.116Z,54.63
2022-10-05T03:11:22.860Z,54.59
2022-10-05T03:16:34.549Z,54.47
2022-10-05T03:21:45.134Z,54.80
2022-10-05T03:26:51.972Z,54.68
2022-10-05T03:31:59.506Z,54.95
2022-10-05T03:37:04.486Z,55.35
2022-10-05T03:42:11.122Z,55.71
2022-10-05T03:47:20.545Z,55.40
2022-10-05T03:52:24.505Z,55.60
2022-10-05T03:57:28.330Z,55.78
2022-10-05T04:02:35.278Z,55.66
2022-10-05T04:07:43.439Z,55.46
2022-10-05T04:12:49.426Z,55.59
2022-10-05T04:17:56.609Z,55.69
2022-10-05T04:23:02.531Z,55.48
2022-10-05T04:28:08.041Z,55.51
2022-10-05T04:33:13.709Z,55.64
2022-10-05T04:38:28.340Z,55.31
2022-10-05T04:43:35.862Z,55.53
2022-10-05T04:48:49.694Z,55.36
2022-10-05T04:53:54.702Z,55.40
2022-10-05T04:59:05.144Z,55.73
2022-10-05T05:04:17.244Z,55.48
2022-10-05T05:09:39.282Z,55.63
2022-10-05T05:14:48.706Z,55.55
2022-10-05T05:19:56.775Z,55.85
2022-10-05T05:25:15.780Z,55.70
2022-10-05T05:30:21.799Z,55.51
2022-10-05T05:35:45.649Z,55.63
2022-10-05T05:40:51.528Z,55.71
2022-10-05T05:45:58.433Z,55.65
2022-10-05T05:51:04.962Z,55.53
2022-10-05T05:56:10.422Z,55.60
2022-10-05T06:01:32.146Z,55.53
2022-10-05T06:06:39.941Z,55.68
2022-10-05T06:11:44.628Z,55.68
2022-10-05T06:16:49.567Z,55.67
2022-10-05T06:21:56.096Z,55.57
2022-10-05T06:27:09.831Z,55.48
2022-10-05T06:32:16.590Z,55.34
2022-10-05T06:37:24.224Z,55.44
2022-10-05T06:42:44.369Z,55.37
2022-10-05T06:48:07.365Z,55.01
2022-10-05T06:53:42.637Z,54.72
2022-10-05T06:58:52.123Z,54.06
2022-10-05T07:04:06.100Z,53.92
2022-10-05T07:09:18.738Z,53.22
2022-10-05T07:14:27.342Z,53.37
2022-10-05T07:19:35.486Z,53.39
2022-10-05T07:24:41.727Z,53.22
2022-10-05T07:29:49.490Z,53.24
2022-10-05T07:34:55.831Z,53.10
2022-10-05T07:40:07.598Z,52.94
2022-10-05T07:45:18.013Z,52.98
2022-10-05T07:50:23.659Z,52.83
2022-10-05T07:55:28.353Z,53.04
2022-10-05T08:00:43.821Z,52.79
2022-10-05T08:05:47.193Z,52.82
2022-10-05T08:10:53.086Z,52.85
2022-10-05T08:15:57.180Z,52.93
2022-10-05T08:21:00.097Z,52.64
2022-10-05T08:26:08.109Z,52.63
2022-10-05T08:31:15.080Z,52.71
2022-10-05T08:36:17.881Z,52.69
2022-10-05T08:41:53.669Z,52.59
2022-10-05T08:47:17.964Z,48.38
2022-10-05T08:52:29.052Z,48.00
2022-10-05T08:57:58.781Z,48.20
2022-10-05T09:03:34.644Z,48.47
2022-10-05T09:08:44.836Z,48.66
2022-10-05T09:14:07.980Z,49.04
2022-10-05T09:20:01.611Z,49.45
2022-10-05T09:25:22.855Z,49.74
2022-10-05T09:30:46.598Z,49.51
2022-10-05T09:36:12.369Z,50.29
2022-10-05T09:41:30.835Z,50.19
2022-10-05T09:46:44.506Z,50.24
2022-10-05T09:52:25.425Z,50.02
2022-10-05T09:57:56.595Z,50.02
2022-10-05T10:03:10.891Z,50.43
2022-10-05T10:08:22.133Z,50.14
2022-10-05T10:13:53.323Z,49.92
2022-10-05T10:19:07.942Z,50.28
2022-10-05T10:24:27.508Z,50.29
2022-10-05T10:30:04.447Z,50.50
2022-10-05T10:35:19.877Z,50.31
2022-10-05T10:40:27.739Z,50.39
2022-10-05T10:45:45.430Z,51.00
2022-10-05T10:51:00.841Z,51.19
2022-10-05T10:56:27.843Z,51.10
2022-10-05T11:01:33.861Z,51.34
2022-10-05T11:06:58.332Z,50.84
2022-10-05T11:12:36.081Z,49.57
2022-10-05T11:18:02.200Z,48.79
2022-10-05T11:23:30.628Z,48.51
2022-10-05T11:29:20.549Z,48.11
2022-10-05T11:34:44.920Z,47.49
2022-10-05T11:39:58.672Z,47.64
2022-10-05T11:45:17.111Z,47.51
2022-10-05T11:50:22.043Z,47.26
2022-10-05T11:55:25.504Z,47.50
2022-10-05T12:00:32.468Z,47.25
2022-10-05T12:05:39.200Z,46.94
2022-10-05T12:10:44.523Z,46.35
2022-10-05T12:15:49.328Z,46.70
2022-10-05T12:20:55.167Z,46.35
2022-10-05T12:26:00.214Z,46.04
2022-10-05T12:31:14.042Z,44.73
2022-10-05T12:36:20.299Z,44.86
2022-10-05T12:41:25.815Z,44.76
2022-10-05T12:46:32.571Z,44.83
2022-10-05T12:51:39.959Z,45.46
2022-10-05T12:56:44.779Z,45.48
2022-10-05T13:01:50.170Z,46.01
2022-10-05T13:07:05.609Z,46.12
2022-10-05T13:12:10.144Z,46.42
2022-10-05T13:17:16.075Z,46.41
2022-10-05T13:22:35.758Z,46.96
2022-10-05T13:27:41.753Z,46.10
2022-10-05T13:32:47.905Z,46.11
2022-10-05T13:37:56.504Z,46.74
2022-10-05T13:43:03.991Z,45.95
2022-10-05T13:48:13.623Z,46.17
2022-10-05T13:53:21.406Z,46.01
2022-10-05T13:58:27.564Z,46.07
2022-10-05T14:03:35.047Z,46.79
2022-10-05T14:08:50.558Z,47.01
2022-10-05T14:13:53.422Z,47.41
2022-10-05T14:18:58.385Z,47.82
2022-10-05T14:24:39.432Z,48.02
2022-10-05T14:29:43.145Z,48.03
2022-10-05T14:34:46.282Z,48.37
2022-10-05T14:39:51.924Z,48.25
2022-10-05T14:44:59.925Z,48.09
2022-10-05T14:50:13.934Z,47.97
2022-10-05T14:55:25.204Z,47.14
2022-10-05T15:00:28.731Z,46.42
2022-10-05T15:05:34.382Z,46.07
2022-10-05T15:10:41.642Z,45.93
2022-10-05T15:15:48.709Z,45.71
2022-10-05T15:20:54.229Z,46.68
2022-10-05T15:26:05.049Z,47.31
2022-10-05T15:31:25.091Z,47.81
2022-10-05T15:36:35.437Z,48.10
2022-10-05T15:41:49.816Z,48.16
2022-10-05T15:46:58.118Z,48.22
2022-10-05T15:52:04.426Z,49.02
2022-10-05T15:57:11.599Z,49.04
2022-10-05T16:02:17.191Z,49.22
2022-10-05T16:07:39.136Z,49.62
2022-10-05T16:12:49.101Z,50.15
2022-10-05T16:18:08.979Z,46.38
2022-10-05T16:23:15.261Z,49.12
2022-10-05T16:28:29.108Z,49.57
2022-10-05T16:33:37.265Z,50.28
2022-10-05T16:38:42.960Z,50.25
2022-10-05T16:43:50.754Z,50.23
2022-10-05T16:48:56.824Z,50.11
2022-10-05T16:54:03.983Z,50.53
2022-10-05T16:59:32.271Z,50.41
2022-10-05T17:04:41.422Z,50.72
2022-10-05T17:09:59.424Z,51.10
2022-10-05T17:15:12.222Z,51.04
2022-10-05T17:20:30.243Z,51.00
2022-10-05T17:25:37.960Z,50.98
2022-10-05T17:30:53.771Z,50.91
2022-10-05T17:36:13.585Z,50.78
2022-10-05T17:41:21.286Z,51.00
2022-10-05T17:46:39.316Z,50.60
2022-10-05T17:52:16.775Z,50.85
2022-10-05T17:57:22.063Z,50.75
2022-10-05T18:02:39.772Z,50.60
2022-10-05T18:07:42.616Z,50.76
2022-10-05T18:12:46.500Z,50.85
2022-10-05T18:17:51.638Z,50.70
2022-10-05T18:22:55.619Z,50.61
2022-10-05T18:28:06.957Z,50.60
2022-10-05T18:33:46.145Z,50.60
2022-10-05T18:38:53.545Z,50.59
2022-10-05T18:44:02.131Z,50.27
2022-10-05T18:49:11.452Z,50.30
2022-10-05T18:54:25.057Z,50.32
2022-10-05T18:59:38.596Z,50.22
2022-10-05T19:04:50.891Z,50.08
2022-10-05T19:10:00.223Z,50.20
2022-10-05T19:15:07.041Z,50.08
2022-10-05T19:20:19.754Z,50.21
2022-10-05T19:25:27.636Z,50.05
2022-10-05T19:30:35.184Z,50.13
2022-10-05T19:35:47.294Z,50.05
2022-10-05T19:40:56.253Z,50.20
2022-10-05T19:46:04.119Z,49.74
2022-10-05T19:51:13.200Z,49.80
2022-10-05T19:56:20.331Z,49.83
2022-10-05T20:01:25.104Z,49.55
2022-10-05T20:06:31.058Z,49.64
2022-10-05T20:11:34.970Z,49.79
2022-10-05T20:16:55.422Z,49.62
2022-10-05T20:22:00.432Z,49.60
2022-10-05T20:27:05.214Z,49.57
2022-10-05T20:32:09.897Z,49.65
2022-10-05T20:37:14.624Z,49.54
2022-10-05T20:42:17.494Z,49.60
2022-10-05T20:47:20.131Z,49.64
2022-10-05T20:52:24.131Z,49.74
2022-10-05T20:57:26.820Z,49.57
2022-10-05T21:02:29.801Z,49.54
2022-10-05T21:07:34.939Z,49.45
2022-10-05T21:12:38.026Z,49.39
2022-10-05T21:17:41.111Z,49.45
2022-10-05T21:22:45.132Z,49.56
2022-10-05T21:27:48.655Z,49.34
2022-10-05T21:32:51.424Z,49.47
2022-10-05T21:37:55.924Z,49.44
2022-10-05T21:42:58.756Z,49.48
2022-10-05T21:48:01.419Z,49.30
2022-10-05T21:53:05.870Z,49.55
2022-10-05T21:58:08.596Z,49.23
2022-10-05T22:03:11.337Z,49.51
2022-10-05T22:08:21.992Z,49.46
2022-10-05T22:13:25.921Z,49.75
2022-10-05T22:18:28.856Z,49.82
2022-10-05T22:23:35.781Z,49.90
2022-10-05T22:28:38.798Z,50.04
2022-10-05T22:33:41.810Z,50.27
2022-10-05T22:38:46.744Z,50.17
2022-10-05T22:43:50.754Z,50.43
2022-10-05T22:48:53.796Z,50.50
2022-10-05T22:53:57.835Z,50.74
2022-10-05T22:59:00.499Z,50.86
2022-10-05T23:04:04.414Z,50.72
2022-10-05T23:09:08.462Z,51.09
2022-10-05T23:14:11.716Z,51.29
2022-10-05T23:19:14.515Z,51.19
2022-10-05T23:24:18.760Z,51.13
2022-10-05T23:29:21.791Z,51.77
2022-10-05T23:34:25.807Z,51.68
2022-10-05T23:39:29.827Z,51.70
2022-10-05T23:44:32.563Z,51.99
2022-10-05T23:49:35.648Z,52.35
2022-10-05T23:54:39.674Z,52.21
2022-10-05T23:59:42.359Z,52.20
